sensor_id;sensor_type;location;lat;lon;timestamp;temperature;humidity
12568;DHT22;6349;50.904;6.136;2023-04-03T00:00:57;3.70;99.90
12568;DHT22;6349;50.904;6.136;2023-04-03T00:02:59;3.70;99.90
12568;DHT22;6349;50.904;6.136;2023-04-03T00:05:00;3.70;99.90
12568;DHT22;6349;50.904;6.136;2023-04-03T00:07:02;3.60;99.90
12568;DHT22;6349;50.904;6.136;2023-04-03T00:09:05;3.60;99.90
12568;DHT22;6349;50.904;6.136;2023-04-03T00:11:07;3.60;99.90
12568;DHT22;6349;50.904;6.136;2023-04-03T00:13:09;3.60;99.90
12568;DHT22;6349;50.904;6.136;2023-04-03T00:15:11;3.60;99.90
12568;DHT22;6349;50.904;6.136;2023-04-03T00:17:13;3.40;99.90
12568;DHT22;6349;50.904;6.136;2023-04-03T00:19:15;3.40;99.90
12568;DHT22;6349;50.904;6.136;2023-04-03T00:21:16;3.40;99.90
12568;DHT22;6349;50.904;6.136;2023-04-03T00:23:18;3.40;99.90
12568;DHT22;6349;50.904;6.136;2023-04-03T00:25:21;3.50;99.90
12568;DHT22;6349;50.904;6.136;2023-04-03T00:27:23;3.40;99.90
12568;DHT22;6349;50.904;6.136;2023-04-03T00:29:23;3.40;99.90
12568;DHT22;6349;50.904;6.136;2023-04-03T00:31:26;3.40;99.90
12568;DHT22;6349;50.904;6.136;2023-04-03T00:33:26;3.30;99.90
12568;DHT22;6349;50.904;6.136;2023-04-03T00:35:28;3.40;99.90
12568;DHT22;6349;50.904;6.136;2023-04-03T00:37:29;3.30;99.90
12568;DHT22;6349;50.904;6.136;2023-04-03T00:39:32;3.30;99.90
12568;DHT22;6349;50.904;6.136;2023-04-03T00:41:33;3.30;99.90
12568;DHT22;6349;50.904;6.136;2023-04-03T00:43:33;3.30;99.90
12568;DHT22;6349;50.904;6.136;2023-04-03T00:45:37;3.40;99.90
12568;DHT22;6349;50.904;6.136;2023-04-03T00:47:41;3.40;99.90
12568;DHT22;6349;50.904;6.136;2023-04-03T00:49:42;3.40;99.90
12568;DHT22;6349;50.904;6.136;2023-04-03T00:51:43;3.40;99.90
12568;DHT22;6349;50.904;6.136;2023-04-03T00:53:59;3.40;99.90
12568;DHT22;6349;50.904;6.136;2023-04-03T00:56:01;3.40;99.90
12568;DHT22;6349;50.904;6.136;2023-04-03T00:58:06;3.30;99.90
12568;DHT22;6349;50.904;6.136;2023-04-03T01:00:10;3.30;99.90
12568;DHT22;6349;50.904;6.136;2023-04-03T01:02:13;3.30;99.90
12568;DHT22;6349;50.904;6.136;2023-04-03T01:04:36;3.30;99.90
12568;DHT22;6349;50.904;6.136;2023-04-03T01:06:37;3.30;99.90
12568;DHT22;6349;50.904;6.136;2023-04-03T01:08:39;3.30;99.90
12568;DHT22;6349;50.904;6.136;2023-04-03T01:10:41;3.40;99.90
12568;DHT22;6349;50.904;6.136;2023-04-03T01:12:44;3.30;99.90
12568;DHT22;6349;50.904;6.136;2023-04-03T01:14:49;3.30;99.90
12568;DHT22;6349;50.904;6.136;2023-04-03T01:16:54;3.20;99.90
12568;DHT22;6349;50.904;6.136;2023-04-03T01:18:57;3.20;99.90
12568;DHT22;6349;50.904;6.136;2023-04-03T01:21:25;3.10;99.90
12568;DHT22;6349;50.904;6.136;2023-04-03T01:25:44;3.10;99.90
12568;DHT22;6349;50.904;6.136;2023-04-03T01:27:46;3.00;99.90
12568;DHT22;6349;50.904;6.136;2023-04-03T01:29:47;3.00;99.90
12568;DHT22;6349;50.904;6.136;2023-04-03T01:32:07;3.10;99.90
12568;DHT22;6349;50.904;6.136;2023-04-03T01:34:10;3.20;99.90
12568;DHT22;6349;50.904;6.136;2023-04-03T01:36:18;3.20;99.90
12568;DHT22;6349;50.904;6.136;2023-04-03T01:38:20;3.20;99.90
12568;DHT22;6349;50.904;6.136;2023-04-03T01:40:22;3.20;99.90
12568;DHT22;6349;50.904;6.136;2023-04-03T01:42:24;3.20;99.90
12568;DHT22;6349;50.904;6.136;2023-04-03T01:44:26;3.20;99.90
12568;DHT22;6349;50.904;6.136;2023-04-03T01:46:28;3.10;99.90
12568;DHT22;6349;50.904;6.136;2023-04-03T01:48:30;3.10;99.90
12568;DHT22;6349;50.904;6.136;2023-04-03T01:50:32;3.00;99.90
12568;DHT22;6349;50.904;6.136;2023-04-03T01:52:33;3.00;99.90
12568;DHT22;6349;50.904;6.136;2023-04-03T01:54:33;3.00;99.90
12568;DHT22;6349;50.904;6.136;2023-04-03T01:56:34;3.10;99.90
12568;DHT22;6349;50.904;6.136;2023-04-03T01:58:35;3.10;99.90
12568;DHT22;6349;50.904;6.136;2023-04-03T02:00:35;3.10;99.90
12568;DHT22;6349;50.904;6.136;2023-04-03T02:02:39;3.10;99.90
12568;DHT22;6349;50.904;6.136;2023-04-03T02:04:44;3.20;99.90
12568;DHT22;6349;50.904;6.136;2023-04-03T02:06:45;3.10;99.90
12568;DHT22;6349;50.904;6.136;2023-04-03T02:08:45;3.10;99.90
12568;DHT22;6349;50.904;6.136;2023-04-03T02:10:49;3.10;99.90
12568;DHT22;6349;50.904;6.136;2023-04-03T02:12:53;3.10;99.90
12568;DHT22;6349;50.904;6.136;2023-04-03T02:14:54;3.20;99.90
12568;DHT22;6349;50.904;6.136;2023-04-03T02:16:56;3.20;99.90
12568;DHT22;6349;50.904;6.136;2023-04-03T02:18:57;3.20;99.90
12568;DHT22;6349;50.904;6.136;2023-04-03T02:20:57;3.20;99.90
12568;DHT22;6349;50.904;6.136;2023-04-03T02:22:58;3.20;99.90
12568;DHT22;6349;50.904;6.136;2023-04-03T02:24:59;3.20;99.90
12568;DHT22;6349;50.904;6.136;2023-04-03T02:27:00;3.10;99.90
12568;DHT22;6349;50.904;6.136;2023-04-03T02:29:00;3.20;99.90
12568;DHT22;6349;50.904;6.136;2023-04-03T02:31:03;3.20;99.90
12568;DHT22;6349;50.904;6.136;2023-04-03T02:33:04;3.20;99.90
12568;DHT22;6349;50.904;6.136;2023-04-03T02:35:06;3.20;99.90
12568;DHT22;6349;50.904;6.136;2023-04-03T02:37:07;3.20;99.90
12568;DHT22;6349;50.904;6.136;2023-04-03T02:39:09;3.10;99.90
12568;DHT22;6349;50.904;6.136;2023-04-03T02:41:12;3.10;99.90
12568;DHT22;6349;50.904;6.136;2023-04-03T02:43:13;3.10;99.90
12568;DHT22;6349;50.904;6.136;2023-04-03T02:45:14;3.10;99.90
12568;DHT22;6349;50.904;6.136;2023-04-03T02:47:16;3.10;99.90
12568;DHT22;6349;50.904;6.136;2023-04-03T02:49:18;3.20;99.90
12568;DHT22;6349;50.904;6.136;2023-04-03T02:51:19;3.10;99.90
12568;DHT22;6349;50.904;6.136;2023-04-03T02:53:20;3.10;99.90
12568;DHT22;6349;50.904;6.136;2023-04-03T02:55:20;3.10;99.90
12568;DHT22;6349;50.904;6.136;2023-04-03T02:57:21;3.00;99.90
12568;DHT22;6349;50.904;6.136;2023-04-03T02:59:23;3.10;99.90
12568;DHT22;6349;50.904;6.136;2023-04-03T03:01:24;3.10;99.90
12568;DHT22;6349;50.904;6.136;2023-04-03T03:03:27;3.00;99.90
12568;DHT22;6349;50.904;6.136;2023-04-03T03:05:29;3.10;99.90
12568;DHT22;6349;50.904;6.136;2023-04-03T03:07:32;3.10;99.90
12568;DHT22;6349;50.904;6.136;2023-04-03T03:09:32;3.10;99.90
12568;DHT22;6349;50.904;6.136;2023-04-03T03:11:33;3.10;99.90
12568;DHT22;6349;50.904;6.136;2023-04-03T03:13:34;3.00;99.90
12568;DHT22;6349;50.904;6.136;2023-04-03T03:15:36;3.00;99.90
12568;DHT22;6349;50.904;6.136;2023-04-03T03:17:38;3.00;99.90
12568;DHT22;6349;50.904;6.136;2023-04-03T03:19:40;3.00;99.90
12568;DHT22;6349;50.904;6.136;2023-04-03T03:21:41;3.00;99.90
12568;DHT22;6349;50.904;6.136;2023-04-03T03:23:43;3.00;99.90
12568;DHT22;6349;50.904;6.136;2023-04-03T03:25:45;3.00;99.90
12568;DHT22;6349;50.904;6.136;2023-04-03T03:27:46;3.00;99.90
12568;DHT22;6349;50.904;6.136;2023-04-03T03:29:47;3.00;99.90
12568;DHT22;6349;50.904;6.136;2023-04-03T03:31:49;3.10;99.90
12568;DHT22;6349;50.904;6.136;2023-04-03T03:33:50;3.10;99.90
12568;DHT22;6349;50.904;6.136;2023-04-03T03:35:53;3.10;99.90
12568;DHT22;6349;50.904;6.136;2023-04-03T03:37:55;3.10;99.90
12568;DHT22;6349;50.904;6.136;2023-04-03T03:39:57;3.10;99.90
12568;DHT22;6349;50.904;6.136;2023-04-03T03:41:58;3.10;99.90
12568;DHT22;6349;50.904;6.136;2023-04-03T03:44:01;3.20;99.90
12568;DHT22;6349;50.904;6.136;2023-04-03T03:46:02;3.20;99.90
12568;DHT22;6349;50.904;6.136;2023-04-03T03:48:05;3.30;99.90
12568;DHT22;6349;50.904;6.136;2023-04-03T03:50:07;3.30;99.90
12568;DHT22;6349;50.904;6.136;2023-04-03T03:52:09;3.20;99.90
12568;DHT22;6349;50.904;6.136;2023-04-03T03:54:11;3.20;99.90
12568;DHT22;6349;50.904;6.136;2023-04-03T03:56:11;3.30;99.90
12568;DHT22;6349;50.904;6.136;2023-04-03T03:58:12;3.30;99.90
12568;DHT22;6349;50.904;6.136;2023-04-03T04:00:15;3.20;99.90
12568;DHT22;6349;50.904;6.136;2023-04-03T04:02:17;3.30;99.90
12568;DHT22;6349;50.904;6.136;2023-04-03T04:04:17;3.30;99.90
12568;DHT22;6349;50.904;6.136;2023-04-03T04:06:19;3.30;99.90
12568;DHT22;6349;50.904;6.136;2023-04-03T04:08:21;3.30;99.90
12568;DHT22;6349;50.904;6.136;2023-04-03T04:10:21;3.30;99.90
12568;DHT22;6349;50.904;6.136;2023-04-03T04:12:22;3.20;99.90
12568;DHT22;6349;50.904;6.136;2023-04-03T04:14:22;3.10;99.90
12568;DHT22;6349;50.904;6.136;2023-04-03T04:16:24;3.00;99.90
12568;DHT22;6349;50.904;6.136;2023-04-03T04:18:25;3.00;99.90
12568;DHT22;6349;50.904;6.136;2023-04-03T04:20:26;3.00;99.90
12568;DHT22;6349;50.904;6.136;2023-04-03T04:22:26;3.00;99.90
12568;DHT22;6349;50.904;6.136;2023-04-03T04:24:27;2.90;99.90
12568;DHT22;6349;50.904;6.136;2023-04-03T04:26:27;2.80;99.90
12568;DHT22;6349;50.904;6.136;2023-04-03T04:28:28;2.80;99.90
12568;DHT22;6349;50.904;6.136;2023-04-03T04:30:29;2.80;99.90
12568;DHT22;6349;50.904;6.136;2023-04-03T04:32:31;2.80;99.90
12568;DHT22;6349;50.904;6.136;2023-04-03T04:34:32;2.80;99.90
12568;DHT22;6349;50.904;6.136;2023-04-03T04:36:33;2.80;99.90
12568;DHT22;6349;50.904;6.136;2023-04-03T04:38:34;2.70;99.90
12568;DHT22;6349;50.904;6.136;2023-04-03T04:40:35;2.70;99.90
12568;DHT22;6349;50.904;6.136;2023-04-03T04:42:38;2.70;99.90
12568;DHT22;6349;50.904;6.136;2023-04-03T04:44:39;2.70;99.90
12568;DHT22;6349;50.904;6.136;2023-04-03T04:46:41;2.70;99.90
12568;DHT22;6349;50.904;6.136;2023-04-03T04:48:42;2.70;99.90
12568;DHT22;6349;50.904;6.136;2023-04-03T04:50:44;2.70;99.90
12568;DHT22;6349;50.904;6.136;2023-04-03T04:52:44;2.70;99.90
12568;DHT22;6349;50.904;6.136;2023-04-03T04:54:45;2.60;99.90
12568;DHT22;6349;50.904;6.136;2023-04-03T04:56:46;2.60;99.90
12568;DHT22;6349;50.904;6.136;2023-04-03T04:58:46;2.60;99.90
12568;DHT22;6349;50.904;6.136;2023-04-03T05:00:47;2.60;99.90
12568;DHT22;6349;50.904;6.136;2023-04-03T05:02:49;2.60;99.90
12568;DHT22;6349;50.904;6.136;2023-04-03T05:04:50;2.50;99.90
12568;DHT22;6349;50.904;6.136;2023-04-03T05:06:52;2.50;99.90
12568;DHT22;6349;50.904;6.136;2023-04-03T05:08:52;2.50;99.90
12568;DHT22;6349;50.904;6.136;2023-04-03T05:10:53;2.40;99.90
12568;DHT22;6349;50.904;6.136;2023-04-03T05:12:54;2.30;99.90
12568;DHT22;6349;50.904;6.136;2023-04-03T05:14:55;2.40;99.90
12568;DHT22;6349;50.904;6.136;2023-04-03T05:16:57;2.40;99.90
12568;DHT22;6349;50.904;6.136;2023-04-03T05:18:58;2.40;99.90
12568;DHT22;6349;50.904;6.136;2023-04-03T05:20:59;2.40;99.90
12568;DHT22;6349;50.904;6.136;2023-04-03T05:22:59;2.50;99.90
12568;DHT22;6349;50.904;6.136;2023-04-03T05:25:00;2.50;99.90
12568;DHT22;6349;50.904;6.136;2023-04-03T05:27:01;2.60;99.90
12568;DHT22;6349;50.904;6.136;2023-04-03T05:29:01;2.60;99.90
12568;DHT22;6349;50.904;6.136;2023-04-03T05:31:02;2.60;99.90
12568;DHT22;6349;50.904;6.136;2023-04-03T05:33:03;2.60;99.90
12568;DHT22;6349;50.904;6.136;2023-04-03T05:35:04;2.60;99.90
12568;DHT22;6349;50.904;6.136;2023-04-03T05:37:06;2.60;99.90
12568;DHT22;6349;50.904;6.136;2023-04-03T05:39:07;2.50;99.90
12568;DHT22;6349;50.904;6.136;2023-04-03T05:41:07;2.50;99.90
12568;DHT22;6349;50.904;6.136;2023-04-03T05:43:08;2.50;99.90
12568;DHT22;6349;50.904;6.136;2023-04-03T05:45:10;2.50;99.90
12568;DHT22;6349;50.904;6.136;2023-04-03T05:47:11;2.50;99.90
12568;DHT22;6349;50.904;6.136;2023-04-03T05:49:15;2.50;99.90
12568;DHT22;6349;50.904;6.136;2023-04-03T05:51:29;2.50;99.90
12568;DHT22;6349;50.904;6.136;2023-04-03T05:53:33;2.60;99.90
12568;DHT22;6349;50.904;6.136;2023-04-03T05:55:34;2.60;99.90
12568;DHT22;6349;50.904;6.136;2023-04-03T05:57:35;2.60;99.90
12568;DHT22;6349;50.904;6.136;2023-04-03T05:59:36;2.60;99.90
12568;DHT22;6349;50.904;6.136;2023-04-03T06:01:37;2.70;99.90
12568;DHT22;6349;50.904;6.136;2023-04-03T06:03:38;2.70;99.90
12568;DHT22;6349;50.904;6.136;2023-04-03T06:05:40;2.70;99.90
12568;DHT22;6349;50.904;6.136;2023-04-03T06:07:44;2.70;99.90
12568;DHT22;6349;50.904;6.136;2023-04-03T06:09:45;2.60;99.90
12568;DHT22;6349;50.904;6.136;2023-04-03T06:11:46;2.60;99.90
12568;DHT22;6349;50.904;6.136;2023-04-03T06:13:46;2.60;99.90
12568;DHT22;6349;50.904;6.136;2023-04-03T06:15:47;2.60;99.90
12568;DHT22;6349;50.904;6.136;2023-04-03T06:17:48;2.60;99.90
12568;DHT22;6349;50.904;6.136;2023-04-03T06:19:48;2.60;99.90
12568;DHT22;6349;50.904;6.136;2023-04-03T06:21:49;2.60;99.90
12568;DHT22;6349;50.904;6.136;2023-04-03T06:23:50;2.60;99.90
12568;DHT22;6349;50.904;6.136;2023-04-03T06:25:51;2.60;99.90
12568;DHT22;6349;50.904;6.136;2023-04-03T06:27:52;2.60;99.90
12568;DHT22;6349;50.904;6.136;2023-04-03T06:29:55;2.60;99.90
12568;DHT22;6349;50.904;6.136;2023-04-03T06:31:56;2.60;99.90
12568;DHT22;6349;50.904;6.136;2023-04-03T06:33:58;2.60;99.90
12568;DHT22;6349;50.904;6.136;2023-04-03T06:36:04;2.70;99.90
12568;DHT22;6349;50.904;6.136;2023-04-03T06:38:06;2.70;99.90
12568;DHT22;6349;50.904;6.136;2023-04-03T06:40:23;2.80;99.90
12568;DHT22;6349;50.904;6.136;2023-04-03T06:42:24;2.90;99.90
12568;DHT22;6349;50.904;6.136;2023-04-03T06:44:24;3.00;99.90
12568;DHT22;6349;50.904;6.136;2023-04-03T06:46:27;3.10;99.90
12568;DHT22;6349;50.904;6.136;2023-04-03T06:48:27;3.20;99.90
12568;DHT22;6349;50.904;6.136;2023-04-03T06:50:29;3.20;99.90
12568;DHT22;6349;50.904;6.136;2023-04-03T06:52:30;3.30;99.90
12568;DHT22;6349;50.904;6.136;2023-04-03T06:54:31;3.40;99.90
12568;DHT22;6349;50.904;6.136;2023-04-03T06:56:34;3.50;99.90
12568;DHT22;6349;50.904;6.136;2023-04-03T06:58:34;3.50;99.90
12568;DHT22;6349;50.904;6.136;2023-04-03T07:00:37;3.60;99.90
12568;DHT22;6349;50.904;6.136;2023-04-03T07:02:39;3.60;99.90
12568;DHT22;6349;50.904;6.136;2023-04-03T07:04:42;3.60;99.90
12568;DHT22;6349;50.904;6.136;2023-04-03T07:06:42;3.60;99.90
12568;DHT22;6349;50.904;6.136;2023-04-03T07:08:46;3.80;99.90
12568;DHT22;6349;50.904;6.136;2023-04-03T07:10:48;3.80;99.90
12568;DHT22;6349;50.904;6.136;2023-04-03T07:12:53;3.90;99.90
12568;DHT22;6349;50.904;6.136;2023-04-03T07:14:55;4.00;99.90
12568;DHT22;6349;50.904;6.136;2023-04-03T07:16:57;4.10;99.90
12568;DHT22;6349;50.904;6.136;2023-04-03T07:18:58;4.20;99.90
12568;DHT22;6349;50.904;6.136;2023-04-03T07:20:59;4.40;99.90
12568;DHT22;6349;50.904;6.136;2023-04-03T07:23:01;4.40;99.90
12568;DHT22;6349;50.904;6.136;2023-04-03T07:25:04;4.50;99.90
12568;DHT22;6349;50.904;6.136;2023-04-03T07:27:09;4.40;99.90
12568;DHT22;6349;50.904;6.136;2023-04-03T07:29:14;4.50;99.90
12568;DHT22;6349;50.904;6.136;2023-04-03T07:31:16;4.60;99.90
12568;DHT22;6349;50.904;6.136;2023-04-03T07:33:21;4.70;99.90
12568;DHT22;6349;50.904;6.136;2023-04-03T07:35:22;4.80;99.90
12568;DHT22;6349;50.904;6.136;2023-04-03T07:37:23;4.90;99.90
12568;DHT22;6349;50.904;6.136;2023-04-03T07:39:23;4.90;99.90
12568;DHT22;6349;50.904;6.136;2023-04-03T07:41:24;5.00;99.90
12568;DHT22;6349;50.904;6.136;2023-04-03T07:43:25;5.00;99.90
12568;DHT22;6349;50.904;6.136;2023-04-03T07:45:26;5.10;99.90
12568;DHT22;6349;50.904;6.136;2023-04-03T07:47:28;5.10;99.90
12568;DHT22;6349;50.904;6.136;2023-04-03T07:49:30;5.10;99.90
12568;DHT22;6349;50.904;6.136;2023-04-03T07:51:32;5.20;99.90
12568;DHT22;6349;50.904;6.136;2023-04-03T07:53:33;5.10;99.90
12568;DHT22;6349;50.904;6.136;2023-04-03T07:55:35;5.20;99.90
12568;DHT22;6349;50.904;6.136;2023-04-03T07:57:42;5.20;99.90
12568;DHT22;6349;50.904;6.136;2023-04-03T07:59:43;5.30;99.90
12568;DHT22;6349;50.904;6.136;2023-04-03T08:01:45;5.30;99.90
12568;DHT22;6349;50.904;6.136;2023-04-03T08:03:48;5.30;99.90
12568;DHT22;6349;50.904;6.136;2023-04-03T08:05:50;5.40;99.90
12568;DHT22;6349;50.904;6.136;2023-04-03T08:07:51;5.40;99.90
12568;DHT22;6349;50.904;6.136;2023-04-03T08:09:51;5.50;99.90
12568;DHT22;6349;50.904;6.136;2023-04-03T08:11:52;5.40;99.90
12568;DHT22;6349;50.904;6.136;2023-04-03T08:13:53;5.40;99.90
12568;DHT22;6349;50.904;6.136;2023-04-03T08:15:55;5.50;99.90
12568;DHT22;6349;50.904;6.136;2023-04-03T08:17:59;5.50;99.90
12568;DHT22;6349;50.904;6.136;2023-04-03T08:19:59;5.50;99.90
12568;DHT22;6349;50.904;6.136;2023-04-03T08:22:02;5.50;99.90
12568;DHT22;6349;50.904;6.136;2023-04-03T08:24:03;5.50;99.90
12568;DHT22;6349;50.904;6.136;2023-04-03T08:26:17;5.50;99.90
12568;DHT22;6349;50.904;6.136;2023-04-03T08:28:17;5.50;99.90
12568;DHT22;6349;50.904;6.136;2023-04-03T08:30:18;5.60;99.90
12568;DHT22;6349;50.904;6.136;2023-04-03T08:32:20;5.70;99.90
12568;DHT22;6349;50.904;6.136;2023-04-03T08:34:21;5.70;99.90
12568;DHT22;6349;50.904;6.136;2023-04-03T08:36:24;5.80;99.90
12568;DHT22;6349;50.904;6.136;2023-04-03T08:38:27;5.70;99.90
12568;DHT22;6349;50.904;6.136;2023-04-03T08:40:28;5.70;99.90
12568;DHT22;6349;50.904;6.136;2023-04-03T08:51:26;5.40;99.90
12568;DHT22;6349;50.904;6.136;2023-04-03T08:53:34;5.30;99.90
12568;DHT22;6349;50.904;6.136;2023-04-03T08:55:47;5.30;99.90
12568;DHT22;6349;50.904;6.136;2023-04-03T08:57:48;5.40;99.90
12568;DHT22;6349;50.904;6.136;2023-04-03T08:59:50;5.40;99.90
12568;DHT22;6349;50.904;6.136;2023-04-03T09:01:53;5.40;99.90
12568;DHT22;6349;50.904;6.136;2023-04-03T09:03:55;5.50;99.90
12568;DHT22;6349;50.904;6.136;2023-04-03T09:08:11;5.70;99.90
12568;DHT22;6349;50.904;6.136;2023-04-03T09:10:15;5.80;99.90
12568;DHT22;6349;50.904;6.136;2023-04-03T09:12:34;5.80;99.90
12568;DHT22;6349;50.904;6.136;2023-04-03T09:14:42;5.80;99.90
12568;DHT22;6349;50.904;6.136;2023-04-03T09:16:56;5.80;99.90
12568;DHT22;6349;50.904;6.136;2023-04-03T09:19:35;5.80;99.90
12568;DHT22;6349;50.904;6.136;2023-04-03T09:21:40;5.90;99.90
12568;DHT22;6349;50.904;6.136;2023-04-03T09:23:44;5.90;99.90
12568;DHT22;6349;50.904;6.136;2023-04-03T09:25:46;6.00;99.90
12568;DHT22;6349;50.904;6.136;2023-04-03T09:27:46;5.90;99.90
12568;DHT22;6349;50.904;6.136;2023-04-03T09:29:47;5.90;99.90
12568;DHT22;6349;50.904;6.136;2023-04-03T09:31:56;5.90;99.90
12568;DHT22;6349;50.904;6.136;2023-04-03T09:34:03;5.90;99.90
12568;DHT22;6349;50.904;6.136;2023-04-03T09:36:05;6.10;99.90
12568;DHT22;6349;50.904;6.136;2023-04-03T09:42:27;6.10;99.90
12568;DHT22;6349;50.904;6.136;2023-04-03T09:44:34;6.20;99.90
12568;DHT22;6349;50.904;6.136;2023-04-03T09:46:37;6.20;99.90
12568;DHT22;6349;50.904;6.136;2023-04-03T09:48:39;6.20;99.90
12568;DHT22;6349;50.904;6.136;2023-04-03T09:50:56;6.20;99.90
12568;DHT22;6349;50.904;6.136;2023-04-03T09:52:58;6.30;99.90
12568;DHT22;6349;50.904;6.136;2023-04-03T09:55:07;6.30;99.90
12568;DHT22;6349;50.904;6.136;2023-04-03T09:57:11;6.30;99.90
12568;DHT22;6349;50.904;6.136;2023-04-03T09:59:15;6.40;99.90
12568;DHT22;6349;50.904;6.136;2023-04-03T10:01:32;6.40;99.90
12568;DHT22;6349;50.904;6.136;2023-04-03T10:03:35;6.40;99.90
12568;DHT22;6349;50.904;6.136;2023-04-03T10:05:41;6.40;99.90
12568;DHT22;6349;50.904;6.136;2023-04-03T10:07:42;6.50;99.90
12568;DHT22;6349;50.904;6.136;2023-04-03T10:09:55;6.50;99.90
12568;DHT22;6349;50.904;6.136;2023-04-03T10:14:16;6.60;99.90
12568;DHT22;6349;50.904;6.136;2023-04-03T10:16:23;6.60;99.90
12568;DHT22;6349;50.904;6.136;2023-04-03T10:25:41;6.80;99.90
12568;DHT22;6349;50.904;6.136;2023-04-03T10:33:01;7.00;99.90
12568;DHT22;6349;50.904;6.136;2023-04-03T10:35:49;7.10;99.90
12568;DHT22;6349;50.904;6.136;2023-04-03T10:38:33;7.20;99.90
12568;DHT22;6349;50.904;6.136;2023-04-03T10:40:52;7.20;99.90
12568;DHT22;6349;50.904;6.136;2023-04-03T10:45:46;7.30;99.90
12568;DHT22;6349;50.904;6.136;2023-04-03T10:50:31;7.40;99.90
12568;DHT22;6349;50.904;6.136;2023-04-03T10:53:08;7.50;99.90
12568;DHT22;6349;50.904;6.136;2023-04-03T10:57:28;7.50;99.90
12568;DHT22;6349;50.904;6.136;2023-04-03T10:59:55;7.50;99.90
12568;DHT22;6349;50.904;6.136;2023-04-03T11:02:02;7.50;99.90
12568;DHT22;6349;50.904;6.136;2023-04-03T11:04:06;7.60;99.90
12568;DHT22;6349;50.904;6.136;2023-04-03T11:06:10;7.60;99.90
12568;DHT22;6349;50.904;6.136;2023-04-03T11:08:28;7.60;99.90
12568;DHT22;6349;50.904;6.136;2023-04-03T11:10:44;7.60;99.90
12568;DHT22;6349;50.904;6.136;2023-04-03T11:13:01;7.60;99.90
12568;DHT22;6349;50.904;6.136;2023-04-03T11:15:05;7.70;99.90
12568;DHT22;6349;50.904;6.136;2023-04-03T11:17:41;7.60;99.90
12568;DHT22;6349;50.904;6.136;2023-04-03T11:20:13;7.60;99.90
12568;DHT22;6349;50.904;6.136;2023-04-03T11:22:28;7.60;99.90
12568;DHT22;6349;50.904;6.136;2023-04-03T11:24:32;7.70;99.90
12568;DHT22;6349;50.904;6.136;2023-04-03T11:26:38;7.70;99.90
12568;DHT22;6349;50.904;6.136;2023-04-03T11:28:42;7.80;99.90
12568;DHT22;6349;50.904;6.136;2023-04-03T11:33:32;7.90;99.90
12568;DHT22;6349;50.904;6.136;2023-04-03T11:35:41;7.90;99.90
12568;DHT22;6349;50.904;6.136;2023-04-03T11:37:51;8.00;99.90
12568;DHT22;6349;50.904;6.136;2023-04-03T11:39:56;8.10;99.90
12568;DHT22;6349;50.904;6.136;2023-04-03T11:44:27;8.20;99.90
12568;DHT22;6349;50.904;6.136;2023-04-03T11:46:58;8.30;99.90
12568;DHT22;6349;50.904;6.136;2023-04-03T11:49:00;8.30;99.90
12568;DHT22;6349;50.904;6.136;2023-04-03T11:51:04;8.30;99.90
12568;DHT22;6349;50.904;6.136;2023-04-03T11:53:29;8.20;99.90
12568;DHT22;6349;50.904;6.136;2023-04-03T11:59:59;8.40;99.90
12568;DHT22;6349;50.904;6.136;2023-04-03T12:02:01;8.40;99.90
12568;DHT22;6349;50.904;6.136;2023-04-03T12:04:09;8.40;99.90
12568;DHT22;6349;50.904;6.136;2023-04-03T12:10:32;8.60;99.90
12568;DHT22;6349;50.904;6.136;2023-04-03T12:12:37;8.70;99.90
12568;DHT22;6349;50.904;6.136;2023-04-03T12:14:38;8.70;99.90
12568;DHT22;6349;50.904;6.136;2023-04-03T12:16:42;8.90;99.90
12568;DHT22;6349;50.904;6.136;2023-04-03T12:18:57;8.80;99.90
12568;DHT22;6349;50.904;6.136;2023-04-03T12:21:04;8.80;99.90
12568;DHT22;6349;50.904;6.136;2023-04-03T12:23:24;8.90;99.90
12568;DHT22;6349;50.904;6.136;2023-04-03T12:25:49;8.90;99.90
12568;DHT22;6349;50.904;6.136;2023-04-03T12:27:51;8.80;99.90
12568;DHT22;6349;50.904;6.136;2023-04-03T12:30:13;8.80;99.90
12568;DHT22;6349;50.904;6.136;2023-04-03T12:37:03;8.70;99.90
12568;DHT22;6349;50.904;6.136;2023-04-03T12:39:17;8.80;99.90
12568;DHT22;6349;50.904;6.136;2023-04-03T12:41:38;8.70;99.90
12568;DHT22;6349;50.904;6.136;2023-04-03T12:48:14;8.90;99.90
12568;DHT22;6349;50.904;6.136;2023-04-03T12:52:39;9.10;99.90
12568;DHT22;6349;50.904;6.136;2023-04-03T12:54:41;9.20;99.90
12568;DHT22;6349;50.904;6.136;2023-04-03T12:56:43;9.30;99.90
12568;DHT22;6349;50.904;6.136;2023-04-03T12:58:45;9.30;99.90
12568;DHT22;6349;50.904;6.136;2023-04-03T13:00:45;9.40;99.90
12568;DHT22;6349;50.904;6.136;2023-04-03T13:02:47;9.40;99.90
12568;DHT22;6349;50.904;6.136;2023-04-03T13:04:51;9.40;99.90
12568;DHT22;6349;50.904;6.136;2023-04-03T13:06:53;9.30;99.90
12568;DHT22;6349;50.904;6.136;2023-04-03T13:08:58;9.40;99.90
12568;DHT22;6349;50.904;6.136;2023-04-03T13:11:05;9.30;99.90
12568;DHT22;6349;50.904;6.136;2023-04-03T13:13:15;9.30;99.90
12568;DHT22;6349;50.904;6.136;2023-04-03T13:15:30;9.40;99.90
12568;DHT22;6349;50.904;6.136;2023-04-03T13:17:41;9.40;99.90
12568;DHT22;6349;50.904;6.136;2023-04-03T13:19:45;9.40;99.90
12568;DHT22;6349;50.904;6.136;2023-04-03T13:21:47;9.30;99.90
12568;DHT22;6349;50.904;6.136;2023-04-03T13:23:50;9.40;99.90
12568;DHT22;6349;50.904;6.136;2023-04-03T13:25:51;9.20;99.90
12568;DHT22;6349;50.904;6.136;2023-04-03T13:27:54;9.30;99.90
12568;DHT22;6349;50.904;6.136;2023-04-03T13:29:57;9.30;99.90
12568;DHT22;6349;50.904;6.136;2023-04-03T13:32:00;9.30;99.90
12568;DHT22;6349;50.904;6.136;2023-04-03T13:34:13;9.30;99.90
12568;DHT22;6349;50.904;6.136;2023-04-03T13:36:31;9.40;99.90
12568;DHT22;6349;50.904;6.136;2023-04-03T13:38:33;9.50;99.90
12568;DHT22;6349;50.904;6.136;2023-04-03T13:40:50;9.50;99.90
12568;DHT22;6349;50.904;6.136;2023-04-03T13:43:14;9.40;99.90
12568;DHT22;6349;50.904;6.136;2023-04-03T13:45:25;9.50;99.90
12568;DHT22;6349;50.904;6.136;2023-04-03T13:47:39;9.50;99.90
12568;DHT22;6349;50.904;6.136;2023-04-03T13:49:43;9.50;99.90
12568;DHT22;6349;50.904;6.136;2023-04-03T13:51:45;9.50;99.90
12568;DHT22;6349;50.904;6.136;2023-04-03T13:53:58;9.40;99.90
12568;DHT22;6349;50.904;6.136;2023-04-03T13:56:08;9.50;99.90
12568;DHT22;6349;50.904;6.136;2023-04-03T14:00:27;9.50;99.90
12568;DHT22;6349;50.904;6.136;2023-04-03T14:02:32;9.60;99.90
12568;DHT22;6349;50.904;6.136;2023-04-03T14:04:56;9.50;99.90
12568;DHT22;6349;50.904;6.136;2023-04-03T14:07:01;9.50;99.90
12568;DHT22;6349;50.904;6.136;2023-04-03T14:09:03;9.50;99.90
12568;DHT22;6349;50.904;6.136;2023-04-03T14:11:05;9.60;99.90
12568;DHT22;6349;50.904;6.136;2023-04-03T14:13:13;9.50;99.90
12568;DHT22;6349;50.904;6.136;2023-04-03T14:15:26;9.50;99.90
12568;DHT22;6349;50.904;6.136;2023-04-03T14:17:28;9.50;99.90
12568;DHT22;6349;50.904;6.136;2023-04-03T14:19:34;9.50;99.90
12568;DHT22;6349;50.904;6.136;2023-04-03T14:21:36;9.50;99.90
12568;DHT22;6349;50.904;6.136;2023-04-03T14:23:37;9.50;99.90
12568;DHT22;6349;50.904;6.136;2023-04-03T14:25:38;9.50;99.90
12568;DHT22;6349;50.904;6.136;2023-04-03T14:27:42;9.50;99.90
12568;DHT22;6349;50.904;6.136;2023-04-03T14:29:44;9.50;99.90
12568;DHT22;6349;50.904;6.136;2023-04-03T14:31:47;9.60;99.90
12568;DHT22;6349;50.904;6.136;2023-04-03T14:33:49;9.60;99.90
12568;DHT22;6349;50.904;6.136;2023-04-03T14:35:50;9.70;99.90
12568;DHT22;6349;50.904;6.136;2023-04-03T14:37:51;9.70;99.90
12568;DHT22;6349;50.904;6.136;2023-04-03T14:39:54;9.70;99.90